sensor_id;sensor_type;location;lat;lon;timestamp;pressure;altitude;pressure_sealevel;temperature;humidity
17438;BME280;73152;52.198;5.422;2024-03-02T00:00:56;99615.06;;;20.25;45.52
17438;BME280;73152;52.198;5.422;2024-03-02T00:03:27;99612.75;;;20.28;45.10
17438;BME280;73152;52.198;5.422;2024-03-02T00:05:56;99600.34;;;20.27;44.88
17438;BME280;73152;52.198;5.422;2024-03-02T00:08:25;99605.13;;;20.25;45.30
17438;BME280;73152;52.198;5.422;2024-03-02T00:10:58;99606.16;;;20.24;45.04
17438;BME280;73152;52.198;5.422;2024-03-02T00:13:29;99608.41;;;20.27;45.36
17438;BME280;73152;52.198;5.422;2024-03-02T00:15:59;99607.34;;;20.28;45.10
17438;BME280;73152;52.198;5.422;2024-03-02T00:18:35;99613.81;;;20.27;45.14
17438;BME280;73152;52.198;5.422;2024-03-02T00:21:06;99619.78;;;20.29;44.51
17438;BME280;73152;52.198;5.422;2024-03-02T00:23:39;99636.16;;;20.28;44.91
17438;BME280;73152;52.198;5.422;2024-03-02T00:26:11;99633.66;;;20.26;45.25
17438;BME280;73152;52.198;5.422;2024-03-02T00:28:41;99647.50;;;20.30;45.15
17438;BME280;73152;52.198;5.422;2024-03-02T00:31:12;99645.03;;;20.28;45.05
17438;BME280;73152;52.198;5.422;2024-03-02T00:33:45;99644.00;;;20.29;44.71
17438;BME280;73152;52.198;5.422;2024-03-02T00:36:16;99669.88;;;20.30;45.01
17438;BME280;73152;52.198;5.422;2024-03-02T00:38:53;99661.16;;;20.28;45.25
17438;BME280;73152;52.198;5.422;2024-03-02T00:41:24;99670.66;;;20.31;44.67
17438;BME280;73152;52.198;5.422;2024-03-02T00:44:04;99675.69;;;20.27;44.85
17438;BME280;73152;52.198;5.422;2024-03-02T00:46:35;99694.69;;;20.32;44.92
17438;BME280;73152;52.198;5.422;2024-03-02T00:49:18;99717.16;;;20.44;43.46
17438;BME280;73152;52.198;5.422;2024-03-02T00:51:50;99719.50;;;20.34;44.13
17438;BME280;73152;52.198;5.422;2024-03-02T00:54:21;99716.63;;;20.29;44.48
17438;BME280;73152;52.198;5.422;2024-03-02T00:56:49;99721.13;;;20.35;43.57
17438;BME280;73152;52.198;5.422;2024-03-02T00:59:21;99718.28;;;20.30;44.22
17438;BME280;73152;52.198;5.422;2024-03-02T01:01:49;99723.28;;;20.27;44.61
17438;BME280;73152;52.198;5.422;2024-03-02T01:04:21;99731.13;;;20.28;44.85
17438;BME280;73152;52.198;5.422;2024-03-02T01:06:50;99726.56;;;20.29;44.15
17438;BME280;73152;52.198;5.422;2024-03-02T01:09:19;99734.88;;;20.27;44.61
17438;BME280;73152;52.198;5.422;2024-03-02T01:11:48;99734.88;;;20.27;45.19
17438;BME280;73152;52.198;5.422;2024-03-02T01:14:17;99725.72;;;20.28;45.09
17438;BME280;73152;52.198;5.422;2024-03-02T01:16:46;99737.56;;;20.27;44.76
17438;BME280;73152;52.198;5.422;2024-03-02T01:19:15;99735.91;;;20.26;45.25
17438;BME280;73152;52.198;5.422;2024-03-02T01:21:47;99726.56;;;20.29;44.94
17438;BME280;73152;52.198;5.422;2024-03-02T01:24:16;99714.97;;;20.28;44.49
17438;BME280;73152;52.198;5.422;2024-03-02T01:26:45;99710.88;;;20.26;45.25
17438;BME280;73152;52.198;5.422;2024-03-02T01:29:14;99741.88;;;20.28;45.22
17438;BME280;73152;52.198;5.422;2024-03-02T01:31:42;99737.56;;;20.27;44.85
17438;BME280;73152;52.198;5.422;2024-03-02T01:34:12;99745.84;;;20.26;45.16
17438;BME280;73152;52.198;5.422;2024-03-02T01:36:41;99743.16;;;20.26;45.45
17438;BME280;73152;52.198;5.422;2024-03-02T01:39:12;99742.34;;;20.25;45.15
17438;BME280;73152;52.198;5.422;2024-03-02T01:41:41;99741.50;;;20.25;45.33
17438;BME280;73152;52.198;5.422;2024-03-02T01:44:11;99748.53;;;20.26;45.46
17438;BME280;73152;52.198;5.422;2024-03-02T01:46:39;99741.50;;;20.25;45.35
17438;BME280;73152;52.198;5.422;2024-03-02T01:49:09;99746.88;;;20.25;45.15
17438;BME280;73152;52.198;5.422;2024-03-02T01:51:37;99752.88;;;20.27;45.06
17438;BME280;73152;52.198;5.422;2024-03-02T01:54:06;99755.78;;;20.25;45.29
17438;BME280;73152;52.198;5.422;2024-03-02T01:56:38;99758.47;;;20.25;45.50
17438;BME280;73152;52.198;5.422;2024-03-02T01:59:07;99755.78;;;20.25;45.15
17438;BME280;73152;52.198;5.422;2024-03-02T02:01:35;99755.19;;;20.23;45.49
17438;BME280;73152;52.198;5.422;2024-03-02T02:04:04;99753.09;;;20.25;45.48
17438;BME280;73152;52.198;5.422;2024-03-02T02:06:33;99749.34;;;20.26;45.36
17438;BME280;73152;52.198;5.422;2024-03-02T02:09:02;99747.72;;;20.25;45.02
17438;BME280;73152;52.198;5.422;2024-03-02T02:11:31;99743.16;;;20.26;45.04
17438;BME280;73152;52.198;5.422;2024-03-02T02:14:03;99745.63;;;20.27;44.93
17438;BME280;73152;52.198;5.422;2024-03-02T02:16:32;99749.34;;;20.26;45.18
17438;BME280;73152;52.198;5.422;2024-03-02T02:19:01;99759.06;;;20.27;45.04
17438;BME280;73152;52.198;5.422;2024-03-02T02:21:32;99762.19;;;20.24;45.54
17438;BME280;73152;52.198;5.422;2024-03-02T02:24:01;99753.09;;;20.25;45.04
17438;BME280;73152;52.198;5.422;2024-03-02T02:26:30;99755.56;;;20.27;44.84
17438;BME280;73152;52.198;5.422;2024-03-02T02:28:59;99752.63;;;20.28;44.75
17438;BME280;73152;52.198;5.422;2024-03-02T02:31:37;99749.16;;;20.28;44.93
17438;BME280;73152;52.198;5.422;2024-03-02T02:34:06;99738.22;;;20.23;45.40
17438;BME280;73152;52.198;5.422;2024-03-02T02:36:39;99741.06;;;20.21;45.50
17438;BME280;73152;52.198;5.422;2024-03-02T02:39:12;99744.81;;;20.20;45.36
17438;BME280;73152;52.198;5.422;2024-03-02T02:41:42;99741.94;;;20.22;45.20
17438;BME280;73152;52.198;5.422;2024-03-02T02:44:11;99758.91;;;20.22;45.25
17438;BME280;73152;52.198;5.422;2024-03-02T02:46:41;99756.22;;;20.22;45.25
17438;BME280;73152;52.198;5.422;2024-03-02T02:49:10;99757.22;;;20.21;45.60
17438;BME280;73152;52.198;5.422;2024-03-02T02:51:41;99748.34;;;20.21;45.16
17438;BME280;73152;52.198;5.422;2024-03-02T02:54:10;99760.97;;;20.20;45.74
17438;BME280;73152;52.198;5.422;2024-03-02T02:56:39;99762.59;;;20.21;45.70
17438;BME280;73152;52.198;5.422;2024-03-02T02:59:08;99766.34;;;20.20;45.70
17438;BME280;73152;52.198;5.422;2024-03-02T03:01:36;99764.69;;;20.19;45.45
17438;BME280;73152;52.198;5.422;2024-03-02T03:04:05;99776.03;;;20.21;45.55
17438;BME280;73152;52.198;5.422;2024-03-02T03:06:34;99767.38;;;20.19;45.55
17438;BME280;73152;52.198;5.422;2024-03-02T03:09:06;99760.13;;;20.20;45.57
17438;BME280;73152;52.198;5.422;2024-03-02T03:11:37;99770.88;;;20.20;45.48
17438;BME280;73152;52.198;5.422;2024-03-02T03:14:05;99772.13;;;20.24;45.01
17438;BME280;73152;52.198;5.422;2024-03-02T03:16:35;99771.72;;;20.20;45.53
17438;BME280;73152;52.198;5.422;2024-03-02T03:19:03;99763.03;;;20.18;45.72
17438;BME280;73152;52.198;5.422;2024-03-02T03:21:32;99766.75;;;20.17;45.54
17438;BME280;73152;52.198;5.422;2024-03-02T03:24:01;99769.44;;;20.17;45.84
17438;BME280;73152;52.198;5.422;2024-03-02T03:26:35;99767.22;;;20.14;45.74
17438;BME280;73152;52.198;5.422;2024-03-02T03:29:04;99771.13;;;20.18;45.86
17438;BME280;73152;52.198;5.422;2024-03-02T03:31:33;99777.53;;;20.17;45.37
17438;BME280;73152;52.198;5.422;2024-03-02T03:34:01;99775.91;;;20.16;45.73
17438;BME280;73152;52.198;5.422;2024-03-02T03:36:30;99776.69;;;20.17;45.75
17438;BME280;73152;52.198;5.422;2024-03-02T03:38:59;99782.06;;;20.17;45.82
17438;BME280;73152;52.198;5.422;2024-03-02T03:41:31;99781.88;;;20.18;45.52
17438;BME280;73152;52.198;5.422;2024-03-02T03:44:00;99782.06;;;20.17;45.81
17438;BME280;73152;52.198;5.422;2024-03-02T03:46:29;99783.97;;;20.16;45.97
17438;BME280;73152;52.198;5.422;2024-03-02T03:48:58;99792.84;;;20.17;45.75
17438;BME280;73152;52.198;5.422;2024-03-02T03:51:27;99791.19;;;20.16;45.99
17438;BME280;73152;52.198;5.422;2024-03-02T03:53:56;99790.38;;;20.15;45.61
17438;BME280;73152;52.198;5.422;2024-03-02T03:56:25;99799.50;;;20.14;45.66
17438;BME280;73152;52.198;5.422;2024-03-02T03:58:56;99801.13;;;20.15;45.65
17438;BME280;73152;52.198;5.422;2024-03-02T04:01:25;99796.81;;;20.14;45.69
17438;BME280;73152;52.198;5.422;2024-03-02T04:03:54;99785.00;;;20.15;45.83
17438;BME280;73152;52.198;5.422;2024-03-02T04:06:23;99787.91;;;20.14;45.90
17438;BME280;73152;52.198;5.422;2024-03-02T04:08:52;99787.91;;;20.14;46.06
17438;BME280;73152;52.198;5.422;2024-03-02T04:11:21;99796.81;;;20.14;45.89
17438;BME280;73152;52.198;5.422;2024-03-02T04:13:49;99808.59;;;20.13;45.86
17438;BME280;73152;52.198;5.422;2024-03-02T04:16:21;99791.63;;;20.13;45.92
17438;BME280;73152;52.198;5.422;2024-03-02T04:18:50;99803.44;;;20.12;45.73
17438;BME280;73152;52.198;5.422;2024-03-02T04:21:18;99806.50;;;20.15;45.99
17438;BME280;73152;52.198;5.422;2024-03-02T04:23:47;99812.94;;;20.14;45.86
17438;BME280;73152;52.198;5.422;2024-03-02T04:26:16;99813.97;;;20.13;45.91
17438;BME280;73152;52.198;5.422;2024-03-02T04:28:48;99818.09;;;20.16;45.75
17438;BME280;73152;52.198;5.422;2024-03-02T04:31:17;99810.25;;;20.14;45.75
17438;BME280;73152;52.198;5.422;2024-03-02T04:33:48;99820.19;;;20.14;46.04
17438;BME280;73152;52.198;5.422;2024-03-02T04:36:17;99814.81;;;20.14;45.68
17438;BME280;73152;52.198;5.422;2024-03-02T04:38:46;99809.44;;;20.14;45.95
17438;BME280;73152;52.198;5.422;2024-03-02T04:41:15;99818.31;;;20.14;45.94
17438;BME280;73152;52.198;5.422;2024-03-02T04:43:43;99821.00;;;20.14;45.98
17438;BME280;73152;52.198;5.422;2024-03-02T04:46:12;99826.41;;;20.14;45.99
17438;BME280;73152;52.198;5.422;2024-03-02T04:48:41;99826.41;;;20.14;45.95
17438;BME280;73152;52.198;5.422;2024-03-02T04:51:13;99823.91;;;20.13;45.82
17438;BME280;73152;52.198;5.422;2024-03-02T04:53:41;99832.56;;;20.15;45.79
17438;BME280;73152;52.198;5.422;2024-03-02T04:56:10;99836.31;;;20.14;45.91
17438;BME280;73152;52.198;5.422;2024-03-02T04:59:05;99834.47;;;20.14;46.07
17438;BME280;73152;52.198;5.422;2024-03-02T05:01:33;99841.72;;;20.14;45.70
17438;BME280;73152;52.198;5.422;2024-03-02T05:04:03;99832.81;;;20.13;46.04
17438;BME280;73152;52.198;5.422;2024-03-02T05:06:34;99842.53;;;20.14;45.96
17438;BME280;73152;52.198;5.422;2024-03-02T05:09:03;99833.41;;;20.15;45.96
17438;BME280;73152;52.198;5.422;2024-03-02T05:11:32;99837.97;;;20.15;46.04
17438;BME280;73152;52.198;5.422;2024-03-02T05:14:19;99845.22;;;20.14;45.71
17438;BME280;73152;52.198;5.422;2024-03-02T05:16:45;99837.16;;;20.14;45.80
17438;BME280;73152;52.198;5.422;2024-03-02T05:19:14;99841.72;;;20.14;45.88
17438;BME280;73152;52.198;5.422;2024-03-02T05:21:46;99848.72;;;20.15;45.66
17438;BME280;73152;52.198;5.422;2024-03-02T05:24:15;99843.34;;;20.15;45.67
17438;BME280;73152;52.198;5.422;2024-03-02T05:26:44;99846.03;;;20.15;46.11
17438;BME280;73152;52.198;5.422;2024-03-02T05:29:13;99848.53;;;20.16;45.98
17438;BME280;73152;52.198;5.422;2024-03-02T05:31:42;99846.63;;;20.17;45.74
17438;BME280;73152;52.198;5.422;2024-03-02T05:34:11;99841.47;;;20.15;45.68
17438;BME280;73152;52.198;5.422;2024-03-02T05:36:40;99846.25;;;20.13;45.91
17438;BME280;73152;52.198;5.422;2024-03-02T05:39:11;99847.91;;;20.14;45.98
17438;BME280;73152;52.198;5.422;2024-03-02T05:41:40;99845.84;;;20.16;45.55
17438;BME280;73152;52.198;5.422;2024-03-02T05:44:09;99845.84;;;20.16;45.59
17438;BME280;73152;52.198;5.422;2024-03-02T05:46:38;99843.34;;;20.15;45.74
17438;BME280;73152;52.198;5.422;2024-03-02T05:49:07;99845.22;;;20.14;45.75
17438;BME280;73152;52.198;5.422;2024-03-02T05:51:36;99853.28;;;20.14;45.92
17438;BME280;73152;52.198;5.422;2024-03-02T05:54:05;99853.28;;;20.14;45.68
17438;BME280;73152;52.198;5.422;2024-03-02T05:56:37;99849.53;;;20.15;45.89
17438;BME280;73152;52.198;5.422;2024-03-02T05:59:07;99859.47;;;20.15;45.76
17438;BME280;73152;52.198;5.422;2024-03-02T06:01:38;99854.94;;;20.15;45.75
17438;BME280;73152;52.198;5.422;2024-03-02T06:04:07;99857.81;;;20.20;45.33
17438;BME280;73152;52.198;5.422;2024-03-02T06:06:37;99868.38;;;20.15;45.51
17438;BME280;73152;52.198;5.422;2024-03-02T06:09:07;99867.78;;;20.13;45.67
17438;BME280;73152;52.198;5.422;2024-03-02T06:11:41;99866.75;;;20.14;45.74
17438;BME280;73152;52.198;5.422;2024-03-02T06:14:10;99867.78;;;20.13;45.68
17438;BME280;73152;52.198;5.422;2024-03-02T06:16:38;99872.31;;;20.13;45.76
17438;BME280;73152;52.198;5.422;2024-03-02T06:19:07;99871.50;;;20.12;45.94
17438;BME280;73152;52.198;5.422;2024-03-02T06:21:36;99873.16;;;20.13;45.69
17438;BME280;73152;52.198;5.422;2024-03-02T06:24:06;99884.75;;;20.14;45.87
17438;BME280;73152;52.198;5.422;2024-03-02T06:26:35;99888.03;;;20.16;46.15
17438;BME280;73152;52.198;5.422;2024-03-02T06:29:07;99888.88;;;20.16;46.47
17438;BME280;73152;52.198;5.422;2024-03-02T06:31:36;99885.97;;;20.18;46.66
17438;BME280;73152;52.198;5.422;2024-03-02T06:34:05;99889.25;;;20.20;46.86
17438;BME280;73152;52.198;5.422;2024-03-02T06:36:34;99892.59;;;20.22;46.80
17438;BME280;73152;52.198;5.422;2024-03-02T06:39:03;99896.72;;;20.24;47.06
17438;BME280;73152;52.198;5.422;2024-03-02T06:41:32;99899.22;;;20.26;46.94
17438;BME280;73152;52.198;5.422;2024-03-02T06:44:01;99896.28;;;20.27;46.86
17438;BME280;73152;52.198;5.422;2024-03-02T06:46:32;99902.28;;;20.29;47.35
17438;BME280;73152;52.198;5.422;2024-03-02T06:49:01;99907.44;;;20.31;47.24
17438;BME280;73152;52.198;5.422;2024-03-02T06:51:30;99901.03;;;20.32;47.37
17438;BME280;73152;52.198;5.422;2024-03-02T06:53:59;99902.47;;;20.34;47.05
17438;BME280;73152;52.198;5.422;2024-03-02T06:56:28;99900.38;;;20.36;47.08
17438;BME280;73152;52.198;5.422;2024-03-02T06:58:58;99898.06;;;20.40;47.21
17438;BME280;73152;52.198;5.422;2024-03-02T07:01:27;99901.41;;;20.42;47.36
17438;BME280;73152;52.198;5.422;2024-03-02T07:03:59;99900.75;;;20.46;47.23
17438;BME280;73152;52.198;5.422;2024-03-02T07:06:28;99898.66;;;20.48;47.31
17438;BME280;73152;52.198;5.422;2024-03-02T07:08:56;99892.81;;;20.51;47.23
17438;BME280;73152;52.198;5.422;2024-03-02T07:11:25;99888.06;;;20.53;47.14
17438;BME280;73152;52.198;5.422;2024-03-02T07:13:54;99901.06;;;20.56;47.30
17438;BME280;73152;52.198;5.422;2024-03-02T07:16:23;99900.91;;;20.51;47.71
17438;BME280;73152;52.198;5.422;2024-03-02T07:19:01;99899.88;;;20.52;47.03
17438;BME280;73152;52.198;5.422;2024-03-02T07:21:30;99899.28;;;20.50;46.93
17438;BME280;73152;52.198;5.422;2024-03-02T07:23:59;99905.47;;;20.51;47.27
17438;BME280;73152;52.198;5.422;2024-03-02T07:26:29;99898.44;;;20.50;47.09
17438;BME280;73152;52.198;5.422;2024-03-02T07:28:58;99908.97;;;20.51;47.01
17438;BME280;73152;52.198;5.422;2024-03-02T07:31:27;99907.53;;;20.55;46.72
17438;BME280;73152;52.198;5.422;2024-03-02T07:33:56;99917.00;;;20.64;46.34
17438;BME280;73152;52.198;5.422;2024-03-02T07:36:27;99919.91;;;20.63;46.69
17438;BME280;73152;52.198;5.422;2024-03-02T07:38:56;99922.16;;;20.66;46.49
17438;BME280;73152;52.198;5.422;2024-03-02T07:41:25;99920.50;;;20.65;46.25
17438;BME280;73152;52.198;5.422;2024-03-02T07:43:54;99926.44;;;20.73;45.41
17438;BME280;73152;52.198;5.422;2024-03-02T07:46:23;99927.34;;;20.67;45.92
17438;BME280;73152;52.198;5.422;2024-03-02T07:48:53;99929.56;;;20.70;45.53
17438;BME280;73152;52.198;5.422;2024-03-02T07:51:21;99932.44;;;20.75;45.37
17438;BME280;73152;52.198;5.422;2024-03-02T07:53:53;99930.16;;;20.72;45.28
17438;BME280;73152;52.198;5.422;2024-03-02T07:56:22;99931.66;;;20.68;45.90
17438;BME280;73152;52.198;5.422;2024-03-02T07:58:53;99936.63;;;20.71;45.76
17438;BME280;73152;52.198;5.422;2024-03-02T08:01:26;99939.91;;;20.73;45.28
17438;BME280;73152;52.198;5.422;2024-03-02T08:03:56;99936.63;;;20.71;45.43
17438;BME280;73152;52.198;5.422;2024-03-02T08:06:26;99942.84;;;20.72;45.55
17438;BME280;73152;52.198;5.422;2024-03-02T08:09:00;99953.16;;;20.75;45.43
17438;BME280;73152;52.198;5.422;2024-03-02T08:11:30;99952.78;;;20.71;45.48
17438;BME280;73152;52.198;5.422;2024-03-02T08:13:59;99949.25;;;20.71;45.34
17438;BME280;73152;52.198;5.422;2024-03-02T08:16:28;99955.25;;;20.73;45.76
17438;BME280;73152;52.198;5.422;2024-03-02T08:18:57;99957.31;;;20.71;45.57
17438;BME280;73152;52.198;5.422;2024-03-02T08:21:26;99957.09;;;20.72;45.65
17438;BME280;73152;52.198;5.422;2024-03-02T08:23:59;99952.13;;;20.76;45.43
17438;BME280;73152;52.198;5.422;2024-03-02T08:26:28;99954.38;;;20.79;44.53
17438;BME280;73152;52.198;5.422;2024-03-02T08:28:57;99951.03;;;20.84;44.48
17438;BME280;73152;52.198;5.422;2024-03-02T08:31:27;99948.59;;;20.75;44.78
17438;BME280;73152;52.198;5.422;2024-03-02T08:33:56;99950.25;;;20.76;44.59
17438;BME280;73152;52.198;5.422;2024-03-02T08:36:26;99957.88;;;20.79;44.62
17438;BME280;73152;52.198;5.422;2024-03-02T08:38:58;99951.72;;;20.72;45.07
17438;BME280;73152;52.198;5.422;2024-03-02T08:41:26;99954.81;;;20.76;44.83
17438;BME280;73152;52.198;5.422;2024-03-02T08:43:55;99949.38;;;20.83;44.67
17438;BME280;73152;52.198;5.422;2024-03-02T08:46:24;99961.34;;;20.87;43.63
17438;BME280;73152;52.198;5.422;2024-03-02T08:48:53;99960.19;;;20.76;44.48
17438;BME280;73152;52.198;5.422;2024-03-02T08:51:22;99959.31;;;20.82;44.20
17438;BME280;73152;52.198;5.422;2024-03-02T08:53:51;99959.72;;;20.86;44.16
17438;BME280;73152;52.198;5.422;2024-03-02T08:56:22;99952.25;;;20.88;44.30
17438;BME280;73152;52.198;5.422;2024-03-02T08:58:52;99951.53;;;20.99;43.65
17438;BME280;73152;52.198;5.422;2024-03-02T09:01:21;99959.59;;;21.05;42.19
17438;BME280;73152;52.198;5.422;2024-03-02T09:03:50;99958.66;;;20.87;43.81
17438;BME280;73152;52.198;5.422;2024-03-02T09:06:19;99960.56;;;20.79;44.39
17438;BME280;73152;52.198;5.422;2024-03-02T09:08:48;99950.59;;;20.87;44.17
17438;BME280;73152;52.198;5.422;2024-03-02T09:11:18;99951.59;;;20.92;43.46
17438;BME280;73152;52.198;5.422;2024-03-02T09:13:49;99958.41;;;20.95;43.02
17438;BME280;73152;52.198;5.422;2024-03-02T09:16:19;99961.16;;;20.88;43.99
17438;BME280;73152;52.198;5.422;2024-03-02T09:18:47;99958.84;;;20.92;43.71
17438;BME280;73152;52.198;5.422;2024-03-02T09:21:16;99961.13;;;20.95;43.30
17438;BME280;73152;52.198;5.422;2024-03-02T09:23:45;99970.59;;;21.04;42.61
17438;BME280;73152;52.198;5.422;2024-03-02T09:26:14;99962.16;;;20.94;43.32
17438;BME280;73152;52.198;5.422;2024-03-02T09:28:44;99963.81;;;20.95;43.39
17438;BME280;73152;52.198;5.422;2024-03-02T09:31:15;99968.13;;;20.96;43.01
17438;BME280;73152;52.198;5.422;2024-03-02T09:33:44;99970.84;;;20.96;42.69
17438;BME280;73152;52.198;5.422;2024-03-02T09:36:21;99969.84;;;20.90;43.34
17438;BME280;73152;52.198;5.422;2024-03-02T09:38:50;99967.94;;;20.97;43.34
17438;BME280;73152;52.198;5.422;2024-03-02T09:41:19;99973.09;;;20.99;43.17
17438;BME280;73152;52.198;5.422;2024-03-02T09:43:49;99975.56;;;21.07;41.39
17438;BME280;73152;52.198;5.422;2024-03-02T09:46:21;99975.84;;;20.92;43.01
17438;BME280;73152;52.198;5.422;2024-03-02T09:48:52;99978.66;;;21.04;42.24
17438;BME280;73152;52.198;5.422;2024-03-02T09:51:21;99975.63;;;20.94;43.45
17438;BME280;73152;52.198;5.422;2024-03-02T09:53:50;99970.41;;;20.99;43.22
17438;BME280;73152;52.198;5.422;2024-03-02T09:56:20;99973.09;;;20.99;43.13
17438;BME280;73152;52.198;5.422;2024-03-02T09:58:49;99972.06;;;21.00;43.36
17438;BME280;73152;52.198;5.422;2024-03-02T10:01:21;99970.19;;;21.07;42.45
17438;BME280;73152;52.198;5.422;2024-03-02T10:03:51;99968.31;;;21.01;43.11
17438;BME280;73152;52.198;5.422;2024-03-02T10:06:22;99975.38;;;21.02;43.15
17438;BME280;73152;52.198;5.422;2024-03-02T10:08:53;99972.59;;;21.15;42.05
17438;BME280;73152;52.198;5.422;2024-03-02T10:11:30;99968.63;;;21.17;41.60
17438;BME280;73152;52.198;5.422;2024-03-02T10:14:05;99968.59;;;21.24;40.21
17438;BME280;73152;52.198;5.422;2024-03-02T10:16:41;99969.13;;;21.08;41.79
17438;BME280;73152;52.198;5.422;2024-03-02T10:19:18;99971.88;;;20.95;42.58
17438;BME280;73152;52.198;5.422;2024-03-02T10:21:47;99976.84;;;20.98;42.39
17438;BME280;73152;52.198;5.422;2024-03-02T10:24:17;99965.44;;;20.96;42.93
17438;BME280;73152;52.198;5.422;2024-03-02T10:26:46;99970.03;;;20.95;43.33
17438;BME280;73152;52.198;5.422;2024-03-02T10:29:16;99964.34;;;21.10;42.20
17438;BME280;73152;52.198;5.422;2024-03-02T10:31:47;99966.84;;;21.11;41.18
17438;BME280;73152;52.198;5.422;2024-03-02T10:34:16;99967.06;;;21.03;42.17
17438;BME280;73152;52.198;5.422;2024-03-02T10:36:45;99978.38;;;21.18;40.57
17438;BME280;73152;52.198;5.422;2024-03-02T10:39:17;99970.13;;;21.13;41.06
17438;BME280;73152;52.198;5.422;2024-03-02T10:41:52;99963.75;;;21.01;42.18
17438;BME280;73152;52.198;5.422;2024-03-02T10:44:22;99964.19;;;20.98;41.52
17438;BME280;73152;52.198;5.422;2024-03-02T10:46:55;99961.53;;;20.92;42.52
17438;BME280;73152;52.198;5.422;2024-03-02T10:49:26;99960.50;;;20.93;42.68
17438;BME280;73152;52.198;5.422;2024-03-02T10:51:56;99959.91;;;20.91;43.14
17438;BME280;73152;52.198;5.422;2024-03-02T10:54:24;99959.91;;;20.91;43.43
17438;BME280;73152;52.198;5.422;2024-03-02T10:56:59;99951.81;;;20.91;43.12
17438;BME280;73152;52.198;5.422;2024-03-02T10:59:33;99942.91;;;20.90;43.23
17438;BME280;73152;52.198;5.422;2024-03-02T11:02:11;99940.22;;;20.90;43.26
17438;BME280;73152;52.198;5.422;2024-03-02T11:04:42;99946.44;;;20.91;43.28
17438;BME280;73152;52.198;5.422;2024-03-02T11:07:11;99943.88;;;20.96;43.27
17438;BME280;73152;52.198;5.422;2024-03-02T11:09:54;99942.25;;;20.95;42.91
17438;BME280;73152;52.198;5.422;2024-03-02T11:12:30;99933.56;;;20.93;42.89
17438;BME280;73152;52.198;5.422;2024-03-02T11:15:04;99942.88;;;20.97;43.02
17438;BME280;73152;52.198;5.422;2024-03-02T11:17:38;99938.97;;;20.93;42.65
17438;BME280;73152;52.198;5.422;2024-03-02T11:20:09;99947.03;;;20.93;42.87
17438;BME280;73152;52.198;5.422;2024-03-02T11:22:39;99951.97;;;20.96;42.63
17438;BME280;73152;52.198;5.422;2024-03-02T11:25:23;99943.13;;;20.89;42.58
17438;BME280;73152;52.198;5.422;2024-03-02T11:28:06;99945.31;;;20.98;42.26
17438;BME280;73152;52.198;5.422;2024-03-02T11:30:51;99949.84;;;21.11;40.33
17438;BME280;73152;52.198;5.422;2024-03-02T11:33:27;99948.03;;;21.05;41.25
17438;BME280;73152;52.198;5.422;2024-03-02T11:35:57;99940.88;;;21.17;39.68
17438;BME280;73152;52.198;5.422;2024-03-02T11:38:31;99952.59;;;21.04;40.93
17438;BME280;73152;52.198;5.422;2024-03-02T11:41:02;99941.19;;;20.96;41.65
17438;BME280;73152;52.198;5.422;2024-03-02T11:43:33;99934.38;;;20.93;41.87
17438;BME280;73152;52.198;5.422;2024-03-02T11:46:05;99924.91;;;20.91;41.96
17438;BME280;73152;52.198;5.422;2024-03-02T11:48:39;99926.94;;;20.95;41.11
17438;BME280;73152;52.198;5.422;2024-03-02T11:51:09;99917.19;;;20.94;40.84
17438;BME280;73152;52.198;5.422;2024-03-02T11:53:41;99920.56;;;21.14;39.30
17438;BME280;73152;52.198;5.422;2024-03-02T11:56:22;99926.03;;;21.08;39.16
17438;BME280;73152;52.198;5.422;2024-03-02T11:58:54;99918.94;;;21.13;39.20
17438;BME280;73152;52.198;5.422;2024-03-02T12:01:23;99910.72;;;21.02;39.62
17438;BME280;73152;52.198;5.422;2024-03-02T12:03:55;99914.38;;;21.14;39.21
17438;BME280;73152;52.198;5.422;2024-03-02T12:06:24;99917.50;;;21.11;39.29
17438;BME280;73152;52.198;5.422;2024-03-02T12:08:53;99909.38;;;21.17;38.51
17438;BME280;73152;52.198;5.422;2024-03-02T12:11:22;99910.03;;;21.13;38.67
17438;BME280;73152;52.198;5.422;2024-03-02T12:13:52;99895.16;;;21.28;38.10
17438;BME280;73152;52.198;5.422;2024-03-02T12:16:25;99903.22;;;21.04;39.26
17438;BME280;73152;52.198;5.422;2024-03-02T12:18:56;99898.72;;;21.04;39.44
17438;BME280;73152;52.198;5.422;2024-03-02T12:21:25;99892.88;;;21.01;39.91
17438;BME280;73152;52.198;5.422;2024-03-02T12:23:56;99897.91;;;20.97;40.23
17438;BME280;73152;52.198;5.422;2024-03-02T12:26:25;99892.81;;;21.14;39.48
17438;BME280;73152;52.198;5.422;2024-03-02T12:28:55;99893.69;;;21.08;39.98
17438;BME280;73152;52.198;5.422;2024-03-02T12:31:24;99881.28;;;21.07;40.34
17438;BME280;73152;52.198;5.422;2024-03-02T12:33:59;99891.16;;;21.13;40.30
17438;BME280;73152;52.198;5.422;2024-03-02T12:36:28;99880.63;;;21.11;40.45
17438;BME280;73152;52.198;5.422;2024-03-02T12:38:57;99886.00;;;21.11;41.20
17438;BME280;73152;52.198;5.422;2024-03-02T12:41:26;99883.41;;;21.23;41.01
17438;BME280;73152;52.198;5.422;2024-03-02T12:43:54;99884.63;;;21.27;40.97
17438;BME280;73152;52.198;5.422;2024-03-02T12:46:24;99879.81;;;21.29;40.71
17438;BME280;73152;52.198;5.422;2024-03-02T12:48:54;99874.00;;;21.32;41.01
17438;BME280;73152;52.198;5.422;2024-03-02T12:51:26;99868.16;;;21.35;40.98
17438;BME280;73152;52.198;5.422;2024-03-02T12:53:57;99861.28;;;21.39;40.94
17438;BME280;73152;52.198;5.422;2024-03-02T12:56:26;99870.56;;;21.43;41.43
17438;BME280;73152;52.198;5.422;2024-03-02T12:58:56;99860.69;;;21.55;40.85
17438;BME280;73152;52.198;5.422;2024-03-02T13:01:25;99855.06;;;21.57;41.13
17438;BME280;73152;52.198;5.422;2024-03-02T13:03:55;99847.22;;;21.55;41.31
17438;BME280;73152;52.198;5.422;2024-03-02T13:06:27;99860.19;;;21.65;41.19
17438;BME280;73152;52.198;5.422;2024-03-02T13:08:56;99857.00;;;21.68;41.43
17438;BME280;73152;52.198;5.422;2024-03-02T13:11:25;99849.53;;;21.70;41.60
17438;BME280;73152;52.198;5.422;2024-03-02T13:13:54;99853.19;;;21.75;41.27
17438;BME280;73152;52.198;5.422;2024-03-02T13:16:23;99846.91;;;21.81;41.58